Time;durP1;ratioP1;P1;durP2;ratioP2;P2;SDS_P1;SDS_P2;PMS_P1;PMS_P2;Temp;Humidity;BMP_temperature;BMP_pressure;BME280_temperature;BME280_humidity;BME280_pressure;Samples;Min_cycle;Max_cycle;Signal;HPM_P1;HPM_P2
2023/03/21 00:01:55;;;;;;;;;;;;;;;8.68;100.00;101639.88;5007248;28;20354;-78
2023/03/21 00:04:24;;;;;;;;;;;;;;;8.69;100.00;101638.06;5021887;28;20352;-76
2023/03/21 00:06:49;;;;;;;;;;;;;;;8.68;100.00;101639.88;5007578;28;19917;-77
2023/03/21 00:09:15;;;;;;;;;;;;;;;8.65;100.00;101632.00;5032750;28;19920;-78
2023/03/21 00:11:40;;;;;;;;;;;;;;;8.61;100.00;101633.13;5003286;28;20333;-77
2023/03/21 00:14:07;;;;;;;;;;;;;;;8.58;100.00;101635.13;5018175;28;19927;-78
2023/03/21 00:16:34;;;;;;;;;;;;;;;8.61;100.00;101630.44;5015600;28;20039;-77
2023/03/21 00:19:02;;;;;;;;;;;;;;;8.58;100.00;101633.34;5017686;28;20309;-77
2023/03/21 00:21:31;;;;;;;;;;;;;;;8.45;100.00;101638.47;5031271;28;20382;-76
2023/03/21 00:23:56;;;;;;;;;;;;;;;8.51;100.00;101635.47;5000775;28;20256;-78
2023/03/21 00:26:21;;;;;;;;;;;;;;;8.44;100.00;101630.53;5031117;28;19936;-77
2023/03/21 00:28:47;;;;;;;;;;;;;;;8.40;100.00;101629.84;5006621;28;20013;-78
2023/03/21 00:31:12;;;;;;;;;;;;;;;8.40;100.00;101622.66;4998965;28;19925;-78
2023/03/21 00:33:38;;;;;;;;;;;;;;;8.33;100.00;101628.44;4999338;28;20443;-76
2023/03/21 00:36:03;;;;;;;;;;;;;;;8.31;100.00;101622.31;5034792;28;20011;-78
2023/03/21 00:38:28;;;;;;;;;;;;;;;8.36;100.00;101617.59;4999020;28;19928;-76
2023/03/21 00:40:54;;;;;;;;;;;;;;;8.29;100.00;101622.41;5013971;28;19956;-78
2023/03/21 00:43:22;;;;;;;;;;;;;;;8.26;100.00;101618.09;5028055;28;20280;-78
2023/03/21 00:45:47;;;;;;;;;;;;;;;8.27;100.00;101613.59;5016144;28;19921;-78
2023/03/21 00:48:12;;;;;;;;;;;;;;;8.25;100.00;101613.69;5028918;28;19924;-78
2023/03/21 00:50:38;;;;;;;;;;;;;;;8.33;100.00;101607.94;5031610;28;19987;-77
2023/03/21 00:53:04;;;;;;;;;;;;;;;8.38;100.00;101605.81;5014272;28;20274;-79
2023/03/21 00:55:29;;;;;;;;;;;;;;;8.45;100.00;101601.00;5011531;28;19970;-77
2023/03/21 00:57:54;;;;;;;;;;;;;;;8.30;100.00;101608.09;5034137;28;19994;-78
2023/03/21 01:00:20;;;;;;;;;;;;;;;8.40;100.00;101598.56;4999868;28;19972;-78
2023/03/21 01:02:57;;;;;;;;;;;;;;;8.45;100.00;101597.47;5013141;28;20015;-78
2023/03/21 01:06:02;;;;;;;;;;;;;;;8.41;100.00;101592.28;5002969;28;19925;-76
2023/03/21 01:08:09;;;;;;;;;;;;;;;8.28;100.00;101598.41;5019381;28;20351;-76
2023/03/21 01:10:36;;;;;;;;;;;;;;;8.25;100.00;101597.63;5025872;28;20231;-76
2023/03/21 01:13:02;;;;;;;;;;;;;;;8.24;100.00;101581.69;5000544;28;20016;-78
2023/03/21 01:15:27;;;;;;;;;;;;;;;8.21;100.00;101582.69;5014588;28;19927;-76
2023/03/21 01:17:52;;;;;;;;;;;;;;;8.33;100.00;101567.78;5017719;28;19931;-76
2023/03/21 01:20:17;;;;;;;;;;;;;;;8.29;100.00;101570.69;5015717;28;19921;-76
2023/03/21 01:22:43;;;;;;;;;;;;;;;8.21;100.00;101571.13;5015792;28;20291;-78
2023/03/21 01:25:08;;;;;;;;;;;;;;;8.13;100.00;101571.56;5034734;28;19921;-78
2023/03/21 01:27:33;;;;;;;;;;;;;;;8.23;100.00;101563.91;5034657;28;20486;-78
2023/03/21 01:29:59;;;;;;;;;;;;;;;8.33;100.00;101562.44;5013124;28;20488;-76
2023/03/21 01:32:24;;;;;;;;;;;;;;;8.31;100.00;101560.78;5030963;28;19983;-76
2023/03/21 01:34:49;;;;;;;;;;;;;;;8.19;100.00;101557.00;5017651;28;19942;-76
2023/03/21 01:37:16;;;;;;;;;;;;;;;8.15;100.00;101558.09;5016217;28;20608;-78
2023/03/21 01:39:41;;;;;;;;;;;;;;;8.28;100.00;101547.56;5017567;28;19921;-78
2023/03/21 01:42:09;;;;;;;;;;;;;;;8.26;100.00;101551.19;5016467;28;20283;-77
2023/03/21 01:44:50;;;;;;;;;;;;;;;8.40;100.00;101550.41;5017833;28;20633;-76
2023/03/21 01:47:15;;;;;;;;;;;;;;;8.34;100.00;101545.41;5026034;28;19924;-75
2023/03/21 01:49:44;;;;;;;;;;;;;;;8.29;100.00;101544.81;5018635;28;20240;-78
2023/03/21 01:52:11;;;;;;;;;;;;;;;8.32;100.00;101546.44;5033175;28;20031;-78
2023/03/21 01:54:37;;;;;;;;;;;;;;;8.34;100.00;101547.22;5013285;28;20641;-78
2023/03/21 01:57:03;;;;;;;;;;;;;;;8.36;100.00;101538.16;5030719;28;19925;-75
2023/03/21 01:59:30;;;;;;;;;;;;;;;8.48;100.00;101536.63;5016657;28;19951;-78
2023/03/21 02:01:56;;;;;;;;;;;;;;;8.50;100.00;101534.72;5015040;28;19925;-77
2023/03/21 02:04:27;;;;;;;;;;;;;;;8.53;100.00;101529.19;5015194;28;19979;-78
2023/03/21 02:07:03;;;;;;;;;;;;;;;8.53;100.00;101521.16;5018898;28;19991;-78
2023/03/21 02:09:31;;;;;;;;;;;;;;;8.60;100.00;101521.69;5012875;28;20662;-78
2023/03/21 02:11:56;;;;;;;;;;;;;;;8.61;100.00;101517.19;5011831;28;20278;-77
2023/03/21 02:14:21;;;;;;;;;;;;;;;8.70;100.00;101512.13;5014879;28;19932;-77
2023/03/21 02:16:46;;;;;;;;;;;;;;;8.65;100.00;101510.69;5016652;28;19920;-77
2023/03/21 02:19:32;;;;;;;;;;;;;;;8.73;100.00;101508.44;5032651;28;20124;-78
2023/03/21 02:21:57;;;;;;;;;;;;;;;8.65;100.00;101500.84;5000196;28;19931;-78
2023/03/21 02:24:41;;;;;;;;;;;;;;;8.62;100.00;101505.53;5030967;28;19925;-78
2023/03/21 02:27:06;;;;;;;;;;;;;;;8.72;100.00;101509.38;5028931;28;19921;-78
2023/03/21 02:29:47;;;;;;;;;;;;;;;8.67;100.00;101500.75;5020383;28;20298;-77
2023/03/21 02:32:20;;;;;;;;;;;;;;;8.72;100.00;101489.78;5033266;28;20454;-76
2023/03/21 02:34:48;;;;;;;;;;;;;;;8.66;100.00;101499.03;5030863;28;19927;-78
2023/03/21 02:37:15;;;;;;;;;;;;;;;8.75;100.00;101486.91;5016237;28;19925;-78
2023/03/21 02:39:53;;;;;;;;;;;;;;;8.76;100.00;101492.16;5041439;28;20301;-77
2023/03/21 02:42:18;;;;;;;;;;;;;;;8.69;100.00;101489.00;5014888;28;20146;-77
2023/03/21 02:44:44;;;;;;;;;;;;;;;8.73;100.00;101481.66;5017488;28;20387;-78
2023/03/21 02:47:25;;;;;;;;;;;;;;;8.83;100.00;101482.81;5032866;28;20545;-77
2023/03/21 02:49:50;;;;;;;;;;;;;;;8.76;100.00;101484.13;5028392;28;19921;-78
2023/03/21 02:52:20;;;;;;;;;;;;;;;8.74;100.00;101482.50;5016790;28;19967;-78
2023/03/21 02:54:47;;;;;;;;;;;;;;;8.67;100.00;101484.69;5032946;28;20394;-78
2023/03/21 02:57:12;;;;;;;;;;;;;;;8.78;100.00;101478.69;5025611;28;20317;-78
2023/03/21 02:59:38;;;;;;;;;;;;;;;8.82;100.00;101482.91;5011772;28;19927;-77
2023/03/21 03:02:03;;;;;;;;;;;;;;;8.93;100.00;101480.44;4997681;28;19976;-77
2023/03/21 03:04:28;;;;;;;;;;;;;;;8.70;100.00;101482.69;5031727;28;19921;-78
2023/03/21 03:06:56;;;;;;;;;;;;;;;8.70;100.00;101481.84;5002648;28;19920;-77
2023/03/21 03:09:26;;;;;;;;;;;;;;;8.75;100.00;101484.22;5014926;28;19921;-77
2023/03/21 03:11:52;;;;;;;;;;;;;;;8.61;100.00;101480.56;5017277;28;19943;-78
2023/03/21 03:14:18;;;;;;;;;;;;;;;8.59;100.00;101482.47;5025888;28;19927;-79
2023/03/21 03:16:57;;;;;;;;;;;;;;;8.49;100.00;101476.78;5015735;28;20302;-78
2023/03/21 03:19:27;;;;;;;;;;;;;;;8.51;100.00;101474.03;5016713;28;19924;-78
2023/03/21 03:21:57;;;;;;;;;;;;;;;8.62;100.00;101476.06;5013479;28;19925;-77
2023/03/21 03:24:23;;;;;;;;;;;;;;;8.58;100.00;101472.72;4999344;28;20027;-78
2023/03/21 03:26:59;;;;;;;;;;;;;;;8.69;100.00;101470.25;5030232;28;20304;-77
2023/03/21 03:29:25;;;;;;;;;;;;;;;8.84;100.00;101465.78;4996728;28;20397;-78
2023/03/21 03:31:51;;;;;;;;;;;;;;;8.66;100.00;101464.22;5017508;28;20224;-78
2023/03/21 03:34:21;;;;;;;;;;;;;;;8.60;100.00;101459.25;5016506;28;19921;-78
2023/03/21 03:36:50;;;;;;;;;;;;;;;8.66;100.00;101466.91;5001289;28;20051;-77
2023/03/21 03:39:15;;;;;;;;;;;;;;;8.62;100.00;101463.53;5013983;28;19951;-78
2023/03/21 03:41:44;;;;;;;;;;;;;;;8.62;100.00;101458.19;5014564;28;19996;-78
2023/03/21 03:44:09;;;;;;;;;;;;;;;8.53;100.00;101454.25;5007822;28;19928;-77
2023/03/21 03:46:35;;;;;;;;;;;;;;;8.51;100.00;101445.44;5013623;28;19920;-78
2023/03/21 03:49:03;;;;;;;;;;;;;;;8.59;100.00;101446.81;5014138;28;19920;-77
2023/03/21 03:51:30;;;;;;;;;;;;;;;8.62;100.00;101439.44;5027083;28;19925;-76
2023/03/21 03:53:56;;;;;;;;;;;;;;;8.55;100.00;101448.81;5012496;28;20443;-78
2023/03/21 03:56:22;;;;;;;;;;;;;;;8.51;100.00;101445.44;5014999;28;19921;-77
2023/03/21 03:58:47;;;;;;;;;;;;;;;8.51;100.00;101445.44;5030349;28;19965;-78
2023/03/21 04:01:12;;;;;;;;;;;;;;;8.61;100.00;101440.41;5019792;28;19924;-77
2023/03/21 04:03:38;;;;;;;;;;;;;;;8.45;100.00;101440.44;5019232;28;20039;-78
2023/03/21 04:06:05;;;;;;;;;;;;;;;8.45;100.00;101445.81;5037227;28;20062;-78
2023/03/21 04:08:30;;;;;;;;;;;;;;;8.42;100.00;101419.22;5035360;28;19932;-77
2023/03/21 04:10:55;;;;;;;;;;;;;;;8.56;100.00;101437.16;5003010;28;19924;-78
2023/03/21 04:13:20;;;;;;;;;;;;;;;8.42;100.00;101437.94;5016608;28;20028;-77
2023/03/21 04:15:46;;;;;;;;;;;;;;;8.43;100.00;101438.78;5022321;28;20371;-78
2023/03/21 04:18:11;;;;;;;;;;;;;;;8.58;100.00;101429.91;5019892;28;19939;-78
2023/03/21 04:20:36;;;;;;;;;;;;;;;8.49;100.00;101422.41;5023751;28;19920;-77
2023/03/21 04:23:01;;;;;;;;;;;;;;;8.51;100.00;101434.75;5014810;28;20256;-78
2023/03/21 04:25:27;;;;;;;;;;;;;;;8.45;100.00;101436.91;5011160;28;20391;-78
2023/03/21 04:27:54;;;;;;;;;;;;;;;8.43;100.00;101430.75;5008179;28;20486;-78
2023/03/21 04:30:20;;;;;;;;;;;;;;;8.53;100.00;101440.03;5022535;28;20248;-77
2023/03/21 04:32:52;;;;;;;;;;;;;;;8.41;100.00;101428.19;4994516;28;19929;-78
2023/03/21 04:35:18;;;;;;;;;;;;;;;8.47;100.00;101418.94;5012303;28;20268;-78
2023/03/21 04:37:43;;;;;;;;;;;;;;;8.54;100.00;101426.53;5011145;28;19982;-78
2023/03/21 04:40:09;;;;;;;;;;;;;;;8.41;100.00;101420.16;5008851;28;19956;-78
2023/03/21 04:42:34;;;;;;;;;;;;;;;8.58;100.00;101413.84;5029814;28;19925;-77
2023/03/21 04:45:00;;;;;;;;;;;;;;;8.63;100.00;101421.59;5027344;28;20344;-78
2023/03/21 04:47:25;;;;;;;;;;;;;;;8.71;100.00;101419.31;5014548;28;19952;-77
2023/03/21 04:49:52;;;;;;;;;;;;;;;8.59;100.00;101412.88;5003655;28;20053;-77
2023/03/21 04:52:17;;;;;;;;;;;;;;;8.47;100.00;101416.25;5017644;28;20487;-78
2023/03/21 04:54:42;;;;;;;;;;;;;;;8.44;100.00;101413.75;5001560;28;19925;-78
2023/03/21 04:57:08;;;;;;;;;;;;;;;8.59;100.00;101412.88;5015061;28;19920;-78
2023/03/21 04:59:33;;;;;;;;;;;;;;;8.54;100.00;101401.59;5018422;28;19931;-78
2023/03/21 05:01:58;;;;;;;;;;;;;;;8.41;100.00;101410.31;5017777;28;19931;-78
2023/03/21 05:04:25;;;;;;;;;;;;;;;8.62;100.00;101401.13;5004496;28;19921;-78
2023/03/21 05:06:50;;;;;;;;;;;;;;;8.46;100.00;101407.38;5007077;28;19921;-79
2023/03/21 05:09:15;;;;;;;;;;;;;;;8.44;100.00;101405.72;5045208;28;19967;-78
2023/03/21 05:11:41;;;;;;;;;;;;;;;8.39;100.00;101411.38;5010720;28;19920;-78
2023/03/21 05:14:07;;;;;;;;;;;;;;;8.39;100.00;101403.34;5009631;28;19921;-78
2023/03/21 05:16:33;;;;;;;;;;;;;;;8.36;100.00;101404.38;5017848;28;19921;-78
2023/03/21 05:19:02;;;;;;;;;;;;;;;8.30;100.00;101407.44;5005102;28;20813;-78
2023/03/21 05:21:28;;;;;;;;;;;;;;;8.29;100.00;101395.00;5018473;28;19921;-79
2023/03/21 05:23:53;;;;;;;;;;;;;;;8.44;100.00;101400.38;5026901;28;20780;-77
2023/03/21 05:26:19;;;;;;;;;;;;;;;8.27;100.00;101396.91;5023773;28;19960;-77
2023/03/21 05:28:46;;;;;;;;;;;;;;;8.36;100.00;101392.81;5022396;28;20579;-78
2023/03/21 05:31:14;;;;;;;;;;;;;;;8.40;100.00;101392.53;5006609;28;19916;-79
2023/03/21 05:33:40;;;;;;;;;;;;;;;8.37;100.00;101394.53;5024227;28;19951;-77
2023/03/21 05:36:05;;;;;;;;;;;;;;;8.39;100.00;101392.63;5036166;28;21560;-78
2023/03/21 05:38:30;;;;;;;;;;;;;;;8.43;100.00;101396.84;5038544;28;20375;-77
2023/03/21 05:40:56;;;;;;;;;;;;;;;8.26;100.00;101395.19;5038230;28;19917;-78
2023/03/21 05:43:21;;;;;;;;;;;;;;;8.53;100.00;101390.00;5023111;28;19925;-78
2023/03/21 05:45:47;;;;;;;;;;;;;;;8.39;100.00;101385.47;5021113;28;20450;-78
2023/03/21 05:48:12;;;;;;;;;;;;;;;8.35;100.00;101388.41;5037437;28;19917;-77
2023/03/21 05:50:37;;;;;;;;;;;;;;;8.40;100.00;101386.34;5041091;28;19947;-77
2023/03/21 05:53:03;;;;;;;;;;;;;;;8.51;100.00;101386.56;5017045;28;19929;-77
2023/03/21 05:55:28;;;;;;;;;;;;;;;8.38;100.00;101385.56;5028712;28;20374;-77
2023/03/21 05:57:53;;;;;;;;;;;;;;;8.60;100.00;101387.84;5012840;28;20398;-76
2023/03/21 06:00:20;;;;;;;;;;;;;;;8.62;100.00;101383.22;5029038;28;20449;-77
2023/03/21 06:02:45;;;;;;;;;;;;;;;8.64;100.00;101389.34;5022470;28;20837;-76
2023/03/21 06:05:11;;;;;;;;;;;;;;;8.57;100.00;101380.00;5032860;28;20102;-78
2023/03/21 06:07:36;;;;;;;;;;;;;;;8.57;100.00;101387.16;4999396;28;19925;-77
2023/03/21 06:10:02;;;;;;;;;;;;;;;8.58;100.00;101379.03;5016825;28;19920;-76
2023/03/21 06:12:27;;;;;;;;;;;;;;;8.64;100.00;101378.66;5019883;28;20368;-77
2023/03/21 06:14:52;;;;;;;;;;;;;;;8.62;100.00;101383.22;5013741;28;20509;-77
2023/03/21 06:17:18;;;;;;;;;;;;;;;8.61;100.00;101383.34;5031562;28;20387;-77
2023/03/21 06:19:43;;;;;;;;;;;;;;;8.61;100.00;101368.13;5030873;28;20612;-77
2023/03/21 06:22:08;;;;;;;;;;;;;;;8.77;100.00;101380.59;5031301;28;20483;-77
2023/03/21 06:24:33;;;;;;;;;;;;;;;8.64;100.00;101384.00;5015627;28;19947;-77
2023/03/21 06:26:59;;;;;;;;;;;;;;;8.83;100.00;101386.41;5015331;28;20011;-77
2023/03/21 06:29:24;;;;;;;;;;;;;;;8.83;100.00;101386.41;5029050;28;19931;-76
2023/03/21 06:31:49;;;;;;;;;;;;;;;8.84;100.00;101382.78;5000290;28;21180;-76
2023/03/21 06:34:14;;;;;;;;;;;;;;;8.81;100.00;101385.66;5035230;28;19920;-77
2023/03/21 06:36:40;;;;;;;;;;;;;;;8.85;100.00;101387.19;5022584;28;19940;-79
2023/03/21 06:39:07;;;;;;;;;;;;;;;8.98;100.00;101389.13;5015910;28;20438;-78
2023/03/21 06:41:32;;;;;;;;;;;;;;;8.88;100.00;101385.28;5016966;28;19928;-77
2023/03/21 06:43:57;;;;;;;;;;;;;;;9.05;100.00;101384.22;5014594;28;19931;-77
2023/03/21 06:46:22;;;;;;;;;;;;;;;9.06;100.00;101381.44;5013570;28;20374;-78
2023/03/21 06:48:48;;;;;;;;;;;;;;;9.00;100.00;101380.00;5031838;28;19964;-78
2023/03/21 06:51:14;;;;;;;;;;;;;;;9.03;100.00;101386.97;5021696;28;20007;-77
2023/03/21 06:53:40;;;;;;;;;;;;;;;9.07;100.00;101385.84;5024220;28;20055;-77
2023/03/21 06:56:06;;;;;;;;;;;;;;;9.24;100.00;101382.09;5026728;28;20279;-77
2023/03/21 06:58:31;;;;;;;;;;;;;;;9.11;100.00;101375.81;5029572;28;19920;-77
2023/03/21 07:01:00;;;;;;;;;;;;;;;9.21;100.00;101379.63;4994802;28;19931;-78
2023/03/21 07:03:25;;;;;;;;;;;;;;;9.30;100.00;101378.16;5013710;28;19925;-77
2023/03/21 07:05:50;;;;;;;;;;;;;;;9.24;100.00;101379.41;5029308;28;21101;-78
2023/03/21 07:08:16;;;;;;;;;;;;;;;9.31;100.00;101385.25;5031924;28;19975;-77
2023/03/21 07:10:42;;;;;;;;;;;;;;;9.44;100.00;101383.50;5022447;28;20368;-77
2023/03/21 07:13:07;;;;;;;;;;;;;;;9.38;100.00;101381.22;5022648;28;19931;-77
2023/03/21 07:15:33;;;;;;;;;;;;;;;9.31;100.00;101395.97;4993105;28;20375;-78
2023/03/21 07:17:58;;;;;;;;;;;;;;;9.21;100.00;101392.16;5030872;28;19972;-79
2023/03/21 07:20:25;;;;;;;;;;;;;;;9.33;100.00;101391.38;4993994;28;20434;-77
2023/03/21 07:22:50;;;;;;;;;;;;;;;9.26;100.00;101396.25;5023162;28;19936;-80
2023/03/21 07:25:16;;;;;;;;;;;;;;;9.08;100.00;101403.63;5011477;28;19921;-78
2023/03/21 07:27:41;;;;;;;;;;;;;;;9.12;100.00;101401.66;5007157;28;19932;-79
2023/03/21 07:30:07;;;;;;;;;;;;;;;9.07;100.00;101404.59;5024294;28;19935;-78
2023/03/21 07:32:33;;;;;;;;;;;;;;;8.93;100.00;101410.81;5029520;28;19920;-80
2023/03/21 07:34:59;;;;;;;;;;;;;;;8.91;100.00;101412.72;5027454;28;19928;-77
2023/03/21 07:37:24;;;;;;;;;;;;;;;9.21;100.00;101397.53;4992605;28;19921;-78
2023/03/21 07:39:50;;;;;;;;;;;;;;;9.06;100.00;101412.75;5032605;28;19966;-78
2023/03/21 07:42:15;;;;;;;;;;;;;;;8.96;100.00;101410.63;5005661;28;19931;-78
2023/03/21 07:44:41;;;;;;;;;;;;;;;8.90;100.00;101394.06;5034697;28;19943;-79
2023/03/21 07:47:06;;;;;;;;;;;;;;;9.17;100.00;101412.91;5012579;28;20019;-78
2023/03/21 07:49:32;;;;;;;;;;;;;;;8.99;100.00;101418.47;5019418;28;19969;-78
2023/03/21 07:51:58;;;;;;;;;;;;;;;9.00;100.00;101420.19;5030130;28;19924;-79
2023/03/21 07:54:23;;;;;;;;;;;;;;;8.85;100.00;101421.16;5000120;28;19927;-79
2023/03/21 07:56:49;;;;;;;;;;;;;;;8.76;100.00;101419.88;5029453;28;19921;-79
2023/03/21 07:59:14;;;;;;;;;;;;;;;8.82;100.00;101411.47;5009771;28;19959;-79
2023/03/21 08:01:39;;;;;;;;;;;;;;;8.84;100.00;101412.25;5014160;28;19921;-78
2023/03/21 08:04:05;;;;;;;;;;;;;;;8.92;100.00;101416.28;5028337;28;19960;-79
2023/03/21 08:06:31;;;;;;;;;;;;;;;8.98;100.00;101419.44;5014467;28;19928;-78
2023/03/21 08:08:56;;;;;;;;;;;;;;;8.88;100.00;101412.91;5012848;28;19920;-79
2023/03/21 08:11:23;;;;;;;;;;;;;;;8.87;100.00;101402.31;5009683;28;19920;-78
2023/03/21 08:13:50;;;;;;;;;;;;;;;9.00;100.00;101409.47;5011363;28;19921;-79
2023/03/21 08:16:15;;;;;;;;;;;;;;;9.07;100.00;101401.91;4997344;28;20387;-77
2023/03/21 08:18:41;;;;;;;;;;;;;;;9.16;100.00;101397.78;5012230;28;19932;-78
2023/03/21 08:21:06;;;;;;;;;;;;;;;9.06;100.00;101391.31;5010423;28;19990;-79
2023/03/21 08:23:32;;;;;;;;;;;;;;;9.18;100.00;101393.19;5013279;28;19925;-79
2023/03/21 08:25:57;;;;;;;;;;;;;;;9.07;100.00;101388.53;5027373;28;20007;-78
2023/03/21 08:28:22;;;;;;;;;;;;;;;9.17;100.00;101375.41;4991413;28;20003;-78
2023/03/21 08:30:48;;;;;;;;;;;;;;;9.00;100.00;101382.69;5026364;28;20073;-78
2023/03/21 08:33:13;;;;;;;;;;;;;;;9.10;100.00;101376.78;5026703;28;19924;-78
2023/03/21 08:35:38;;;;;;;;;;;;;;;9.21;100.00;101370.72;4995651;28;20354;-78
2023/03/21 08:38:04;;;;;;;;;;;;;;;9.27;100.00;101371.19;5025304;28;20373;-79
2023/03/21 08:40:29;;;;;;;;;;;;;;;9.14;100.00;101364.88;5026428;28;19948;-77
2023/03/21 08:42:55;;;;;;;;;;;;;;;9.24;100.00;101363.34;5007025;28;20381;-79
2023/03/21 08:45:21;;;;;;;;;;;;;;;9.13;100.00;101369.38;5014713;28;19925;-77
2023/03/21 08:47:46;;;;;;;;;;;;;;;9.19;100.00;101364.59;5018777;28;19921;-78
2023/03/21 08:50:14;;;;;;;;;;;;;;;9.29;100.00;101365.72;5036113;28;20369;-79
2023/03/21 08:52:39;;;;;;;;;;;;;;;9.46;100.00;101367.31;5018869;28;20378;-78
2023/03/21 08:55:05;;;;;;;;;;;;;;;9.36;100.00;101363.53;5032980;28;19931;-78
2023/03/21 08:57:30;;;;;;;;;;;;;;;9.32;100.00;101367.38;4997712;28;19921;-78
2023/03/21 08:59:55;;;;;;;;;;;;;;;9.58;100.00;101357.63;5028947;28;19921;-79
2023/03/21 09:02:21;;;;;;;;;;;;;;;9.49;100.00;101364.44;5021563;28;19957;-79
2023/03/21 09:04:46;;;;;;;;;;;;;;;9.48;100.00;101364.56;5022746;28;19921;-79
2023/03/21 09:07:13;;;;;;;;;;;;;;;9.40;100.00;101365.06;5007863;28;19921;-78
2023/03/21 09:09:38;;;;;;;;;;;;;;;9.36;100.00;101360.84;5014445;28;19936;-79
2023/03/21 09:12:04;;;;;;;;;;;;;;;9.33;100.00;101363.72;4998351;28;19925;-79
2023/03/21 09:14:29;;;;;;;;;;;;;;;9.40;100.00;101365.06;5012654;28;19925;-80
2023/03/21 09:16:55;;;;;;;;;;;;;;;9.53;100.00;101341.00;5011383;28;19943;-79
2023/03/21 09:19:20;;;;;;;;;;;;;;;9.43;100.00;101360.34;4991299;28;19967;-78
2023/03/21 09:21:46;;;;;;;;;;;;;;;9.58;100.00;101345.09;5008639;28;19921;-78
2023/03/21 09:24:11;;;;;;;;;;;;;;;9.59;100.00;101343.25;5025703;28;20339;-79
2023/03/21 09:26:37;;;;;;;;;;;;;;;9.59;100.00;101341.44;4991528;28;19921;-78
2023/03/21 09:29:04;;;;;;;;;;;;;;;9.62;100.00;101328.81;5023443;28;20303;-79
2023/03/21 09:31:29;;;;;;;;;;;;;;;9.53;100.00;101331.13;5008357;28;19931;-79
2023/03/21 09:33:56;;;;;;;;;;;;;;;9.60;100.00;101335.13;5025528;28;19921;-79
2023/03/21 09:36:25;;;;;;;;;;;;;;;9.52;100.00;101331.22;5017343;28;19921;-79
2023/03/21 09:38:50;;;;;;;;;;;;;;;9.74;100.00;101330.66;4997476;28;19975;-79
2023/03/21 09:41:42;;;;;;;;;;;;;;;9.83;100.00;101324.69;5018353;28;19921;-80
2023/03/21 09:44:16;;;;;;;;;;;;;;;9.80;100.00;101332.09;5019617;28;20266;-79
2023/03/21 09:46:49;;;;;;;;;;;;;;;10.00;100.00;101322.69;5036609;28;19975;-79
2023/03/21 09:49:19;;;;;;;;;;;;;;;9.89;100.00;101328.78;5020136;28;19923;-79
2023/03/21 09:51:46;;;;;;;;;;;;;;;9.99;100.00;101329.00;5003279;28;20047;-79
2023/03/21 09:54:13;;;;;;;;;;;;;;;10.26;100.00;101333.47;5038524;28;19960;-80
2023/03/21 09:56:39;;;;;;;;;;;;;;;10.09;100.00;101308.66;5018751;28;19924;-80
2023/03/21 09:59:06;;;;;;;;;;;;;;;10.30;100.00;101308.13;5012102;28;19925;-79
2023/03/21 10:01:33;;;;;;;;;;;;;;;10.21;100.00;101307.78;5037802;28;19920;-79
2023/03/21 10:04:04;;;;;;;;;;;;;;;10.23;100.00;101305.03;5029175;28;20363;-78
2023/03/21 10:06:30;;;;;;;;;;;;;;;10.09;100.00;101278.25;5019128;28;19974;-78
2023/03/21 10:09:05;;;;;;;;;;;;;;;10.36;100.00;101299.66;5020943;28;19928;-78
2023/03/21 10:11:31;;;;;;;;;;;;;;;10.21;100.00;101296.22;5005562;28;20337;-77
2023/03/21 10:14:01;;;;;;;;;;;;;;;10.53;100.00;101284.22;5003650;28;19939;-78
2023/03/21 10:16:27;;;;;;;;;;;;;;;10.44;100.00;101288.41;5019921;28;20428;-78
2023/03/21 10:18:53;;;;;;;;;;;;;;;10.58;100.00;101282.94;5003058;28;20391;-79
2023/03/21 10:21:22;;;;;;;;;;;;;;;10.47;100.00;101280.16;5016657;28;19924;-78
2023/03/21 10:23:50;;;;;;;;;;;;;;;10.67;100.00;101283.22;5002084;28;19925;-77
2023/03/21 10:26:15;;;;;;;;;;;;;;;10.54;100.00;101276.06;5018466;28;20285;-77
2023/03/21 10:28:41;;;;;;;;;;;;;;;10.53;100.00;101277.03;5002044;28;19924;-79
2023/03/21 10:31:09;;;;;;;;;;;;;;;10.48;100.00;101280.03;5018936;28;20011;-80
2023/03/21 10:33:35;;;;;;;;;;;;;;;10.47;100.00;101253.31;5019719;28;20324;-80
2023/03/21 10:36:07;;;;;;;;;;;;;;;10.74;100.00;101265.72;5019891;28;19932;-78
2023/03/21 10:38:33;;;;;;;;;;;;;;;10.56;100.00;101268.75;5033588;28;19975;-78
2023/03/21 10:40:58;;;;;;;;;;;;;;;10.74;100.00;101265.72;5035141;28;20011;-79
2023/03/21 10:43:26;;;;;;;;;;;;;;;10.63;100.00;101266.50;5034461;28;20404;-79
2023/03/21 10:45:52;;;;;;;;;;;;;;;10.91;100.00;101262.66;5037540;28;19917;-78
2023/03/21 10:48:17;;;;;;;;;;;;;;;11.01;100.00;101248.56;5007187;28;19986;-77
2023/03/21 10:50:44;;;;;;;;;;;;;;;10.92;100.00;101255.47;5017589;28;19920;-78
2023/03/21 10:53:30;;;;;;;;;;;;;;;10.90;100.00;101246.69;5032026;28;20151;-78
2023/03/21 10:55:56;;;;;;;;;;;;;;;11.10;100.00;101254.13;5030394;28;20576;-78
2023/03/21 10:58:26;;;;;;;;;;;;;;;11.18;100.00;101261.63;5019393;28;19935;-77
2023/03/21 11:01:13;;;;;;;;;;;;;;;11.15;100.00;101251.09;4999165;28;20462;-78
2023/03/21 11:03:42;;;;;;;;;;;;;;;11.32;100.00;101254.38;5001335;28;19921;-78
2023/03/21 11:06:11;;;;;;;;;;;;;;;11.32;100.00;101251.69;5038685;28;19916;-77
2023/03/21 11:08:37;;;;;;;;;;;;;;;11.52;100.00;101251.03;5031393;28;19921;-79
2023/03/21 11:11:03;;;;;;;;;;;;;;;11.65;100.00;101250.13;5033773;28;19996;-77
2023/03/21 11:13:39;;;;;;;;;;;;;;;11.44;100.00;101261.50;5018731;28;19924;-78
2023/03/21 11:16:07;;;;;;;;;;;;;;;11.57;100.00;101256.06;5002865;28;20406;-78
2023/03/21 11:18:33;;;;;;;;;;;;;;;11.71;100.00;101271.16;5030149;28;19920;-80
2023/03/21 11:21:02;;;;;;;;;;;;;;;11.79;100.00;101254.44;5033888;28;19921;-77
2023/03/21 11:23:29;;;;;;;;;;;;;;;11.82;100.00;101259.56;5022567;28;19951;-77
2023/03/21 11:25:54;;;;;;;;;;;;;;;11.73;100.00;101255.75;4998521;28;19928;-76
2023/03/21 11:28:23;;;;;;;;;;;;;;;11.69;100.00;101257.84;5017816;28;19920;-77
2023/03/21 11:30:49;;;;;;;;;;;;;;;11.81;100.00;101253.34;5032115;28;20463;-78
2023/03/21 11:33:15;;;;;;;;;;;;;;;11.93;100.00;101256.06;5037666;28;19925;-78
2023/03/21 11:35:40;;;;;;;;;;;;;;;11.91;100.00;101250.81;5021349;28;20375;-79
2023/03/21 11:38:06;;;;;;;;;;;;;;;11.97;100.00;101254.84;5031801;28;20367;-76
2023/03/21 11:40:32;;;;;;;;;;;;;;;12.01;100.00;101237.53;5021978;28;19929;-79
2023/03/21 11:42:58;;;;;;;;;;;;;;;11.64;100.00;101208.06;5018973;28;19932;-77
2023/03/21 11:45:25;;;;;;;;;;;;;;;11.94;100.00;101244.31;5026559;28;19924;-79
2023/03/21 11:47:51;;;;;;;;;;;;;;;11.83;100.00;101246.03;5027281;28;19921;-78
2023/03/21 11:50:33;;;;;;;;;;;;;;;11.87;100.00;101235.03;5023168;28;20043;-78
2023/03/21 11:53:17;;;;;;;;;;;;;;;12.05;100.00;101227.41;5011493;28;19925;-79
2023/03/21 11:56:02;;;;;;;;;;;;;;;11.89;100.00;101225.84;5022692;28;19927;-78
2023/03/21 11:58:47;;;;;;;;;;;;;;;12.06;100.00;101237.16;5029312;28;19960;-79
2023/03/21 12:01:13;;;;;;;;;;;;;;;12.33;100.00;101227.91;5012110;28;19920;-78
2023/03/21 12:03:41;;;;;;;;;;;;;;;12.22;100.00;101237.69;5012429;28;19940;-77
2023/03/21 12:06:12;;;;;;;;;;;;;;;12.34;100.00;101221.53;5027551;28;19933;-77
2023/03/21 12:09:01;;;;;;;;;;;;;;;12.35;100.00;101223.25;5024495;28;20229;-76
2023/03/21 12:11:36;;;;;;;;;;;;;;;12.38;100.00;101220.31;5020142;28;19921;-77
2023/03/21 12:14:07;;;;;;;;;;;;;;;12.18;100.00;101225.44;5026859;28;19925;-78
2023/03/21 12:16:35;;;;;;;;;;;;;;;12.47;100.00;101206.13;5024044;28;21558;-77
2023/03/21 12:19:06;;;;;;;;;;;;;;;12.65;100.00;101203.78;5023689;28;20678;-77
2023/03/21 12:21:37;;;;;;;;;;;;;;;12.69;100.00;101191.78;5025648;28;19921;-76
2023/03/21 12:24:22;;;;;;;;;;;;;;;12.56;100.00;101212.59;5028332;28;19925;-79
2023/03/21 12:26:47;;;;;;;;;;;;;;;12.65;100.00;101194.84;5012168;28;20477;-77
2023/03/21 12:29:18;;;;;;;;;;;;;;;12.64;100.00;101193.13;5028329;28;19954;-77
2023/03/21 12:31:48;;;;;;;;;;;;;;;12.37;100.00;101189.84;5026149;28;19925;-77
2023/03/21 12:34:16;;;;;;;;;;;;;;;12.34;100.00;101176.63;5028554;28;19990;-76
2023/03/21 12:37:00;;;;;;;;;;;;;;;12.53;100.00;101176.00;5009355;28;20359;-77